METAR Data
IDs: Format: Raw Decoded Include TAF

Data at: 0406 UTC 26 May 2022

METAR for:KAEJ (Buena Vista/Central, CO, US)
Text:KAEJ 260355Z AUTO 30010KT 10SM 12/M03 A3018 RMK AO2 T01181030
Temperature: 11.8°C ( 53°F)
Dewpoint: -3.0°C ( 27°F) [RH = 35%]
Pressure (altimeter):30.18 inches Hg (1022.1 mb)
Winds:from the WNW (300 degrees) at 12 MPH (10 knots; 5.1 m/s)
Visibility:10 or more sm (16+ km)
QC Flag:automated observation with no human augmentation